This is the latest recevied weather packets stored in our database for station/object KC1DMA. If no packets are shown the sender has not sent any weather packets the latest 10 day(s).
| Time | Temp. | Humidity | Pressure | Rain* | Wind** | Luminosity | Snow |
|---|---|---|---|---|---|---|---|
| 1777319290 | 22.22° C | 31% | 1024.1 hPa | - | - | 620 W/m² | - |
| 1777318987 | 22.22° C | 31% | 1024.3 hPa | - | - | 620 W/m² | - |
| 1777318684 | 22.22° C | 31% | 1024 hPa | - | - | 636 W/m² | - |
| 1777318380 | 22.22° C | 31% | 1024 hPa | - | - | 636 W/m² | - |
| 1777318076 | 21.67° C | 31% | 1024.2 hPa | - | - | 647 W/m² | - |
| 1777317774 | 21.67° C | 30% | 1024.2 hPa | - | - | 657 W/m² | - |
| 1777317471 | 21.67° C | 31% | 1024.2 hPa | - | - | 674 W/m² | - |
| 1777317168 | 21.67° C | 29% | 1024.4 hPa | - | - | 681 W/m² | - |
| 1777316863 | 21.67° C | 29% | 1024.6 hPa | - | - | 692 W/m² | - |
| 1777316561 | 21.67° C | 31% | 1024.7 hPa | - | - | 701 W/m² | - |
| 1777316257 | 21.11° C | 32% | 1024.4 hPa | - | - | 712 W/m² | - |
| 1777315954 | 21.11° C | 33% | 1024.5 hPa | - | - | 722 W/m² | - |
| 1777315653 | 21.11° C | 35% | 1024.7 hPa | - | - | 731 W/m² | - |
| 1777315351 | 21.11° C | 32% | 1024.6 hPa | - | - | 739 W/m² | - |
| 1777315048 | 20.56° C | 36% | 1024.7 hPa | - | - | 748 W/m² | - |
| 1777314743 | 21.11° C | 33% | 1024.8 hPa | - | - | 757 W/m² | - |
| 1777314440 | 21.11° C | 34% | 1024.8 hPa | - | - | 765 W/m² | - |
| 1777314137 | 20.56° C | 35% | 1024.9 hPa | - | - | 770 W/m² | - |
| 1777313836 | 20° C | 35% | 1025 hPa | - | - | 777 W/m² | - |
| 1777313532 | 20° C | 35% | 1025 hPa | - | - | 785 W/m² | - |
| 1777313230 | 21.11° C | 35% | 1025.1 hPa | - | - | 792 W/m² | - |
| 1777312926 | 20.56° C | 35% | 1025.1 hPa | - | - | 798 W/m² | - |
| 1777312622 | 20° C | 38% | 1025.2 hPa | - | - | 802 W/m² | - |
| 1777312319 | 20.56° C | 34% | 1025.4 hPa | - | - | 808 W/m² | - |
| 1777312016 | 20° C | 36% | 1025.3 hPa | - | - | 813 W/m² | - |
* Rain since midnight (hover to see other rain measurements)
** Current wind speed in m/s (hover to see current wind gust speed)